createdAt,value
2019-03-24T00:00:29.585Z,1009.33
2019-03-24T00:01:40.473Z,1009.32
2019-03-24T00:02:30.620Z,1009.36
2019-03-24T00:03:29.528Z,1009.33
2019-03-24T00:04:29.541Z,1009.37
2019-03-24T00:05:29.562Z,1009.38
2019-03-24T00:06:29.517Z,1009.37
2019-03-24T00:07:29.486Z,1009.40
2019-03-24T00:08:29.520Z,1009.39
2019-03-24T00:09:29.462Z,1009.34
2019-03-24T00:10:29.470Z,1009.31
2019-03-24T00:11:29.439Z,1009.30
2019-03-24T00:12:29.445Z,1009.31
2019-03-24T00:13:29.424Z,1009.30
2019-03-24T00:14:29.445Z,1009.31
2019-03-24T00:15:29.405Z,1009.31
2019-03-24T00:16:29.385Z,1009.35
2019-03-24T00:17:29.372Z,1009.32
2019-03-24T00:18:29.376Z,1009.34
2019-03-24T00:19:29.354Z,1009.34
2019-03-24T00:20:29.375Z,1009.34
2019-03-24T00:21:29.330Z,1009.34
2019-03-24T00:22:29.318Z,1009.30
2019-03-24T00:23:29.310Z,1009.25
2019-03-24T00:24:29.315Z,1009.24
2019-03-24T00:25:29.289Z,1009.25
2019-03-24T00:26:29.306Z,1009.26
2019-03-24T00:27:29.269Z,1009.25
2019-03-24T00:28:29.261Z,1009.26
2019-03-24T00:29:29.244Z,1009.26
2019-03-24T00:30:29.245Z,1009.32
2019-03-24T00:31:29.220Z,1009.28
2019-03-24T00:32:29.245Z,1009.28
2019-03-24T00:33:29.198Z,1009.30
2019-03-24T00:34:29.191Z,1009.28
2019-03-24T00:35:29.176Z,1009.31
2019-03-24T00:36:29.188Z,1009.31
2019-03-24T00:37:29.152Z,1009.24
2019-03-24T00:38:29.195Z,1009.26
2019-03-24T00:39:29.134Z,1009.25
2019-03-24T00:40:29.129Z,1009.23
2019-03-24T00:41:29.110Z,1009.20
2019-03-24T00:42:29.112Z,1009.20
2019-03-24T00:43:29.088Z,1009.14
2019-03-24T00:44:29.107Z,1009.14
2019-03-24T00:45:36.753Z,1009.12
2019-03-24T00:46:30.054Z,1009.11
2019-03-24T00:47:29.044Z,1009.07
2019-03-24T00:48:29.048Z,1009.09
2019-03-24T00:49:29.029Z,1009.10
2019-03-24T00:50:29.069Z,1009.09
2019-03-24T00:51:29.016Z,1009.06
2019-03-24T00:52:28.989Z,1009.07
2019-03-24T00:53:28.980Z,1009.08
2019-03-24T00:54:28.970Z,1009.08
2019-03-24T00:55:28.966Z,1009.06
2019-03-24T00:56:29.247Z,1009.06
2019-03-24T00:57:28.950Z,1009.05
2019-03-24T00:58:28.925Z,1009.05
2019-03-24T00:59:28.912Z,1009.01
2019-03-24T01:00:28.900Z,1008.99
2019-03-24T01:01:28.892Z,1009.00
2019-03-24T01:02:28.910Z,1008.94
2019-03-24T01:03:28.888Z,1008.96
2019-03-24T01:04:28.856Z,1008.94
2019-03-24T01:05:28.847Z,1008.90
2019-03-24T01:06:28.835Z,1008.90
2019-03-24T01:07:28.823Z,1008.94
2019-03-24T01:08:28.848Z,1008.92
2019-03-24T01:09:28.814Z,1008.96
2019-03-24T01:10:28.794Z,1008.93
2019-03-24T01:11:28.787Z,1008.92
2019-03-24T01:12:28.770Z,1008.93
2019-03-24T01:13:28.764Z,1008.91
2019-03-24T01:14:28.935Z,1008.91
2019-03-24T01:15:28.745Z,1008.93
2019-03-24T01:16:28.725Z,1008.90
2019-03-24T01:17:28.721Z,1008.89
2019-03-24T01:18:28.705Z,1008.86
2019-03-24T01:19:28.692Z,1008.84
2019-03-24T01:20:28.711Z,1008.88
2019-03-24T01:21:28.688Z,1008.85
2019-03-24T01:22:28.660Z,1008.90
2019-03-24T01:23:28.652Z,1008.88
2019-03-24T01:24:28.639Z,1008.89
2019-03-24T01:25:28.627Z,1008.89
2019-03-24T01:26:28.822Z,1008.88
2019-03-24T01:27:28.622Z,1008.90
2019-03-24T01:28:28.596Z,1008.77
2019-03-24T01:29:28.582Z,1008.80
2019-03-24T01:30:28.572Z,1008.82
2019-03-24T01:31:28.560Z,1008.80
2019-03-24T01:32:28.821Z,1008.81
2019-03-24T01:33:28.549Z,1008.80
2019-03-24T01:34:28.531Z,1008.83
2019-03-24T01:35:28.522Z,1008.82
2019-03-24T01:36:28.511Z,1008.83
2019-03-24T01:37:28.494Z,1008.81
2019-03-24T01:38:28.514Z,1008.80
2019-03-24T01:39:28.497Z,1008.81
2019-03-24T01:40:28.464Z,1008.78
2019-03-24T01:41:28.450Z,1008.78
2019-03-24T01:42:28.440Z,1008.80
2019-03-24T01:43:28.428Z,1008.82
2019-03-24T01:44:37.212Z,1008.81
2019-03-24T01:45:35.978Z,1008.86
2019-03-24T01:46:28.397Z,1008.84
2019-03-24T01:47:28.383Z,1008.82
2019-03-24T01:48:28.379Z,1008.83
2019-03-24T01:49:28.427Z,1008.81
2019-03-24T01:50:28.500Z,1008.85
2019-03-24T01:51:28.340Z,1008.85
2019-03-24T01:52:28.335Z,1008.84
2019-03-24T01:53:28.318Z,1008.87
2019-03-24T01:54:28.306Z,1008.87
2019-03-24T01:55:28.326Z,1008.84
2019-03-24T01:56:28.313Z,1008.89
2019-03-24T01:57:28.274Z,1008.89
2019-03-24T01:58:28.268Z,1008.84
2019-03-24T01:59:28.254Z,1008.86
2019-03-24T02:00:28.262Z,1008.82
2019-03-24T02:01:28.229Z,1008.80
2019-03-24T02:02:28.273Z,1008.80
2019-03-24T02:03:28.209Z,1008.81
2019-03-24T02:04:28.206Z,1008.80
2019-03-24T02:05:28.187Z,1008.77
2019-03-24T02:06:28.183Z,1008.77
2019-03-24T02:07:28.163Z,1008.71
2019-03-24T02:08:28.205Z,1008.69
2019-03-24T02:09:28.142Z,1008.68
2019-03-24T02:10:28.138Z,1008.67
2019-03-24T02:11:28.119Z,1008.61
2019-03-24T02:12:28.125Z,1008.62
2019-03-24T02:13:28.106Z,1008.57
2019-03-24T02:14:28.115Z,1008.61
2019-03-24T02:15:28.094Z,1008.61
2019-03-24T02:16:28.066Z,1008.59
2019-03-24T02:17:28.057Z,1008.55
2019-03-24T02:18:28.044Z,1008.54
2019-03-24T02:19:28.039Z,1008.57
2019-03-24T02:20:28.093Z,1008.56
2019-03-24T02:21:28.011Z,1008.49
2019-03-24T02:22:28.000Z,1008.51
2019-03-24T02:23:27.990Z,1008.49
2019-03-24T02:24:28.001Z,1008.48
2019-03-24T02:25:27.980Z,1008.48
2019-03-24T02:26:27.992Z,1008.49
2019-03-24T02:27:27.943Z,1008.47
2019-03-24T02:28:27.942Z,1008.43
2019-03-24T02:29:27.924Z,1008.41
2019-03-24T02:30:27.913Z,1008.44
2019-03-24T02:31:27.923Z,1008.37
2019-03-24T02:32:27.933Z,1008.37
2019-03-24T02:33:27.881Z,1008.35
2019-03-24T02:34:27.872Z,1008.41
2019-03-24T02:35:27.856Z,1008.41
2019-03-24T02:36:27.846Z,1008.41
2019-03-24T02:37:27.854Z,1008.37
2019-03-24T02:38:27.869Z,1008.38
2019-03-24T02:39:27.813Z,1008.37
2019-03-24T02:40:27.801Z,1008.36
2019-03-24T02:41:27.790Z,1008.38
2019-03-24T02:42:27.781Z,1008.39
2019-03-24T02:43:27.789Z,1008.39
2019-03-24T02:44:27.810Z,1008.35
2019-03-24T02:45:27.751Z,1008.39
2019-03-24T02:46:27.735Z,1008.36
2019-03-24T02:47:27.729Z,1008.38
2019-03-24T02:48:27.715Z,1008.35
2019-03-24T02:49:27.719Z,1008.30
2019-03-24T02:50:27.726Z,1008.30
2019-03-24T02:51:27.686Z,1008.32
2019-03-24T02:52:27.670Z,1008.35
2019-03-24T02:53:27.658Z,1008.35
2019-03-24T02:54:27.648Z,1008.39
2019-03-24T02:55:27.647Z,1008.34
2019-03-24T02:56:27.677Z,1008.31
2019-03-24T02:57:27.616Z,1008.35
2019-03-24T02:58:27.611Z,1008.37
2019-03-24T02:59:27.592Z,1008.36
2019-03-24T03:00:27.598Z,1008.35
2019-03-24T03:01:27.596Z,1008.30
2019-03-24T03:02:27.754Z,1008.37
2019-03-24T03:03:27.547Z,1008.36
2019-03-24T03:04:27.537Z,1008.37
2019-03-24T03:05:27.526Z,1008.36
2019-03-24T03:06:27.529Z,1008.36
2019-03-24T03:07:27.527Z,1008.30
2019-03-24T03:08:27.536Z,1008.31
2019-03-24T03:09:27.484Z,1008.31
2019-03-24T03:10:27.473Z,1008.30
2019-03-24T03:11:27.462Z,1008.31
2019-03-24T03:12:27.458Z,1008.25
2019-03-24T03:13:27.455Z,1008.26
2019-03-24T03:14:27.620Z,1008.25
2019-03-24T03:15:27.417Z,1008.26
2019-03-24T03:16:37.982Z,1008.23
2019-03-24T03:17:28.394Z,1008.22
2019-03-24T03:18:27.384Z,1008.24
2019-03-24T03:19:27.396Z,1008.22
2019-03-24T03:20:27.550Z,1008.24
2019-03-24T03:21:27.350Z,1008.26
2019-03-24T03:22:27.341Z,1008.21
2019-03-24T03:23:27.330Z,1008.25
2019-03-24T03:24:27.327Z,1008.24
2019-03-24T03:25:27.307Z,1008.24
2019-03-24T03:26:27.341Z,1008.19
2019-03-24T03:27:27.283Z,1008.22
2019-03-24T03:28:27.277Z,1008.23
2019-03-24T03:29:27.263Z,1008.21
2019-03-24T03:30:27.287Z,1008.23
2019-03-24T03:31:27.293Z,1008.22
2019-03-24T03:32:27.331Z,1008.22
2019-03-24T03:33:27.225Z,1008.21
2019-03-24T03:34:27.231Z,1008.19
2019-03-24T03:35:27.209Z,1008.19
2019-03-24T03:36:27.203Z,1008.19
2019-03-24T03:37:27.182Z,1008.24
2019-03-24T03:38:27.206Z,1008.19
2019-03-24T03:39:27.160Z,1008.16
2019-03-24T03:40:27.144Z,1008.17
2019-03-24T03:41:27.157Z,1008.14
2019-03-24T03:42:27.123Z,1008.15
2019-03-24T03:43:27.111Z,1008.13
2019-03-24T03:44:27.283Z,1008.16
2019-03-24T03:45:27.095Z,1008.16
2019-03-24T03:46:27.077Z,1008.12
2019-03-24T03:47:27.065Z,1008.13
2019-03-24T03:48:27.062Z,1008.12
2019-03-24T03:49:27.042Z,1008.14
2019-03-24T03:50:27.078Z,1008.13
2019-03-24T03:51:27.022Z,1008.16
2019-03-24T03:52:27.023Z,1008.10
2019-03-24T03:53:26.998Z,1008.09
2019-03-24T03:54:26.992Z,1008.07
2019-03-24T03:55:26.977Z,1008.15
2019-03-24T03:56:27.013Z,1008.13
2019-03-24T03:57:26.969Z,1008.11
2019-03-24T03:58:26.953Z,1008.12
2019-03-24T03:59:26.935Z,1008.14
2019-03-24T04:00:26.922Z,1008.09
2019-03-24T04:01:26.932Z,1008.08
2019-03-24T04:02:26.962Z,1008.09
2019-03-24T04:03:26.889Z,1008.04
2019-03-24T04:04:26.878Z,1008.02
2019-03-24T04:05:26.869Z,1008.06
2019-03-24T04:06:26.854Z,1008.09
2019-03-24T04:07:26.846Z,1008.03
2019-03-24T04:08:26.905Z,1008.06
2019-03-24T04:09:26.823Z,1008.07
2019-03-24T04:10:26.812Z,1008.03
2019-03-24T04:11:26.807Z,1008.03
2019-03-24T04:12:26.791Z,1007.98
2019-03-24T04:13:26.778Z,1007.99
2019-03-24T04:14:26.833Z,1007.98
2019-03-24T04:15:26.759Z,1007.98
2019-03-24T04:16:26.746Z,1008.05
2019-03-24T04:17:26.735Z,1008.03
2019-03-24T04:18:26.725Z,1008.05
2019-03-24T04:19:26.715Z,1008.05
2019-03-24T04:20:26.743Z,1008.08
2019-03-24T04:21:26.689Z,1008.06
2019-03-24T04:22:26.682Z,1008.05
2019-03-24T04:23:26.669Z,1008.09
2019-03-24T04:24:26.659Z,1008.07
2019-03-24T04:25:26.665Z,1008.07
2019-03-24T04:26:26.681Z,1008.03
2019-03-24T04:27:26.635Z,1008.04
2019-03-24T04:28:26.614Z,1008.06
2019-03-24T04:29:26.610Z,1008.04
2019-03-24T04:30:26.589Z,1008.04
2019-03-24T04:31:26.578Z,1008.02
2019-03-24T04:32:26.625Z,1008.06
2019-03-24T04:33:26.562Z,1008.07
2019-03-24T04:34:26.545Z,1008.07
2019-03-24T04:35:26.537Z,1008.09
2019-03-24T04:36:26.524Z,1008.16
2019-03-24T04:37:26.514Z,1008.11
2019-03-24T04:38:26.562Z,1008.13
2019-03-24T04:39:26.497Z,1008.06
2019-03-24T04:40:26.483Z,1008.09
2019-03-24T04:41:26.470Z,1008.10
2019-03-24T04:42:26.475Z,1008.06
2019-03-24T04:43:26.450Z,1008.06
2019-03-24T04:44:26.479Z,1008.05
2019-03-24T04:45:26.447Z,1008.08
2019-03-24T04:46:26.414Z,1008.03
2019-03-24T04:47:26.402Z,1008.08
2019-03-24T04:48:26.393Z,1008.05
2019-03-24T04:49:26.384Z,1008.04
2019-03-24T04:50:26.436Z,1008.04
2019-03-24T04:51:26.357Z,1007.97
2019-03-24T04:52:26.348Z,1007.99
2019-03-24T04:53:26.338Z,1008.00
2019-03-24T04:54:26.333Z,1007.96
2019-03-24T04:55:26.315Z,1007.98
2019-03-24T04:56:26.345Z,1008.00
2019-03-24T04:57:26.322Z,1008.01
2019-03-24T04:58:26.282Z,1008.01
2019-03-24T04:59:26.275Z,1008.03
2019-03-24T05:00:26.260Z,1008.03
2019-03-24T05:01:26.251Z,1008.02
2019-03-24T05:02:26.308Z,1008.03
2019-03-24T05:03:26.230Z,1008.05
2019-03-24T05:04:26.215Z,1008.04
2019-03-24T05:05:26.209Z,1008.01
2019-03-24T05:06:26.194Z,1007.99
2019-03-24T05:07:26.183Z,1007.99
2019-03-24T05:08:26.222Z,1008.01
2019-03-24T05:09:26.162Z,1007.96
2019-03-24T05:10:26.151Z,1007.96
2019-03-24T05:11:26.139Z,1007.96
2019-03-24T05:12:26.132Z,1007.91
2019-03-24T05:13:26.158Z,1007.98
2019-03-24T05:14:26.150Z,1007.95
2019-03-24T05:15:26.100Z,1007.91
2019-03-24T05:16:26.085Z,1007.94
2019-03-24T05:17:27.197Z,1007.94
2019-03-24T05:18:26.062Z,1007.94
2019-03-24T05:19:26.054Z,1007.92
2019-03-24T05:20:26.135Z,1007.93
2019-03-24T05:21:26.029Z,1007.93
2019-03-24T05:22:26.022Z,1007.94
2019-03-24T05:23:26.017Z,1007.87
2019-03-24T05:24:25.998Z,1007.87
2019-03-24T05:25:25.989Z,1007.96
2019-03-24T05:26:26.058Z,1007.96
2019-03-24T05:27:25.962Z,1007.93
2019-03-24T05:28:25.951Z,1007.92
2019-03-24T05:29:25.946Z,1007.98
2019-03-24T05:30:25.932Z,1007.96
2019-03-24T05:31:25.918Z,1007.98
2019-03-24T05:32:25.952Z,1007.94
2019-03-24T05:33:25.897Z,1007.99
2019-03-24T05:34:25.894Z,1007.97
2019-03-24T05:35:25.882Z,1007.99
2019-03-24T05:36:25.898Z,1008.01
2019-03-24T05:37:25.854Z,1007.98
2019-03-24T05:38:25.914Z,1007.96
2019-03-24T05:39:25.830Z,1007.95
2019-03-24T05:40:25.822Z,1007.99
2019-03-24T05:41:25.807Z,1007.97
2019-03-24T05:42:25.801Z,1008.00
2019-03-24T05:43:25.792Z,1007.99
2019-03-24T05:44:25.996Z,1008.00
2019-03-24T05:45:25.766Z,1008.00
2019-03-24T05:46:25.756Z,1008.02
2019-03-24T05:47:25.748Z,1007.98
2019-03-24T05:48:25.756Z,1008.00
2019-03-24T05:49:25.721Z,1007.97
2019-03-24T05:50:25.780Z,1007.99
2019-03-24T05:51:25.700Z,1007.96
2019-03-24T05:52:27.606Z,1007.92
2019-03-24T05:53:25.677Z,1007.92
2019-03-24T05:54:25.664Z,1007.94
2019-03-24T05:55:25.657Z,1007.98
2019-03-24T05:56:25.718Z,1007.98
2019-03-24T05:57:25.633Z,1007.95
2019-03-24T05:58:25.625Z,1007.99
2019-03-24T05:59:25.617Z,1007.95
2019-03-24T06:00:25.599Z,1008.00
2019-03-24T06:01:25.589Z,1008.00
2019-03-24T06:02:25.784Z,1007.97
2019-03-24T06:03:25.571Z,1008.01
2019-03-24T06:04:25.557Z,1008.03
2019-03-24T06:05:25.542Z,1008.04
2019-03-24T06:06:25.536Z,1007.99
2019-03-24T06:07:25.521Z,1008.01
2019-03-24T06:08:25.588Z,1008.00
2019-03-24T06:09:25.501Z,1008.05
2019-03-24T06:10:25.490Z,1008.04
2019-03-24T06:11:25.480Z,1008.05
2019-03-24T06:12:25.474Z,1007.98
2019-03-24T06:13:25.456Z,1007.99
2019-03-24T06:14:25.489Z,1007.98
2019-03-24T06:15:25.435Z,1007.95
2019-03-24T06:16:25.421Z,1007.97
2019-03-24T06:17:25.411Z,1008.04
2019-03-24T06:18:25.404Z,1008.03
2019-03-24T06:19:25.389Z,1007.98
2019-03-24T06:20:25.454Z,1008.01
2019-03-24T06:21:25.365Z,1008.01
2019-03-24T06:22:25.358Z,1007.98
2019-03-24T06:23:25.347Z,1008.00
2019-03-24T06:24:25.332Z,1007.93
2019-03-24T06:25:25.323Z,1007.98
2019-03-24T06:26:25.366Z,1008.03
2019-03-24T06:27:25.304Z,1008.01
2019-03-24T06:28:25.293Z,1008.00
2019-03-24T06:29:25.301Z,1008.01
2019-03-24T06:30:25.271Z,1007.99
2019-03-24T06:31:25.258Z,1007.97
2019-03-24T06:32:25.297Z,1008.02
2019-03-24T06:33:25.237Z,1007.99
2019-03-24T06:34:25.224Z,1008.03
2019-03-24T06:35:25.212Z,1008.00
2019-03-24T06:36:25.201Z,1008.05
2019-03-24T06:37:25.201Z,1008.05
2019-03-24T06:38:25.229Z,1008.01
2019-03-24T06:39:25.169Z,1008.06
2019-03-24T06:40:25.156Z,1008.02
2019-03-24T06:41:25.147Z,1008.04
2019-03-24T06:42:25.136Z,1008.00
2019-03-24T06:43:25.126Z,1008.01
2019-03-24T06:44:25.173Z,1008.03
2019-03-24T06:45:28.747Z,1008.05
2019-03-24T06:46:25.091Z,1008.01
2019-03-24T06:47:25.079Z,1008.06
2019-03-24T06:48:25.074Z,1008.03
2019-03-24T06:49:25.058Z,1008.00
2019-03-24T06:50:25.120Z,1007.98
2019-03-24T06:51:26.060Z,1007.97
2019-03-24T06:52:25.024Z,1007.99
2019-03-24T06:53:25.017Z,1007.95
2019-03-24T06:54:25.002Z,1007.95
2019-03-24T06:55:24.992Z,1007.94
2019-03-24T06:56:25.033Z,1007.93
2019-03-24T06:57:24.975Z,1007.98
2019-03-24T06:58:24.962Z,1007.94
2019-03-24T06:59:24.952Z,1007.98
2019-03-24T07:00:24.939Z,1007.95
2019-03-24T07:01:24.930Z,1007.94
2019-03-24T07:02:24.958Z,1007.96
2019-03-24T07:03:24.912Z,1007.94
2019-03-24T07:04:24.901Z,1007.91
2019-03-24T07:05:24.906Z,1007.93
2019-03-24T07:06:24.893Z,1007.92
2019-03-24T07:07:24.870Z,1007.93
2019-03-24T07:08:24.892Z,1007.94
2019-03-24T07:09:24.859Z,1007.95
2019-03-24T07:10:24.863Z,1007.91
2019-03-24T07:11:24.817Z,1007.93
2019-03-24T07:12:24.823Z,1007.94
2019-03-24T07:13:24.798Z,1007.94
2019-03-24T07:14:24.839Z,1007.98
2019-03-24T07:15:24.815Z,1007.96
2019-03-24T07:16:24.814Z,1008.01
2019-03-24T07:17:24.747Z,1007.99
2019-03-24T07:18:24.738Z,1007.97
2019-03-24T07:19:24.730Z,1007.99
2019-03-24T07:20:24.805Z,1007.97
2019-03-24T07:21:24.708Z,1008.02
2019-03-24T07:22:24.709Z,1007.99
2019-03-24T07:23:24.688Z,1008.02
2019-03-24T07:24:24.681Z,1007.98
2019-03-24T07:25:24.687Z,1007.96
2019-03-24T07:26:24.713Z,1007.96
2019-03-24T07:27:24.656Z,1007.97
2019-03-24T07:28:25.012Z,1007.97
2019-03-24T07:29:24.632Z,1007.99
2019-03-24T07:30:24.624Z,1008.00
2019-03-24T07:31:24.604Z,1008.03
2019-03-24T07:32:24.625Z,1008.00
2019-03-24T07:33:24.581Z,1007.96
2019-03-24T07:34:24.563Z,1007.97
2019-03-24T07:35:24.553Z,1008.02
2019-03-24T07:36:24.542Z,1008.02
2019-03-24T07:37:24.545Z,1008.04
2019-03-24T07:38:24.579Z,1008.04
2019-03-24T07:39:24.506Z,1008.04
2019-03-24T07:40:24.497Z,1008.02
2019-03-24T07:41:24.484Z,1008.04
2019-03-24T07:42:24.480Z,1008.01
2019-03-24T07:43:24.464Z,1007.99
2019-03-24T07:44:24.542Z,1007.99
2019-03-24T07:45:24.441Z,1007.97
2019-03-24T07:46:24.432Z,1007.99
2019-03-24T07:47:24.426Z,1007.99
2019-03-24T07:48:24.416Z,1007.98
2019-03-24T07:49:24.416Z,1007.98
2019-03-24T07:50:24.419Z,1007.98
2019-03-24T07:51:24.381Z,1008.00
2019-03-24T07:52:24.368Z,1007.98
2019-03-24T07:53:24.350Z,1007.98
2019-03-24T07:54:24.357Z,1007.93
2019-03-24T07:55:24.339Z,1007.92
2019-03-24T07:56:24.370Z,1007.89
2019-03-24T07:57:24.307Z,1007.89
2019-03-24T07:58:24.295Z,1007.85
2019-03-24T07:59:24.303Z,1007.86
2019-03-24T08:00:24.482Z,1007.89
2019-03-24T08:01:24.274Z,1007.87
2019-03-24T08:02:24.301Z,1007.83
2019-03-24T08:03:24.249Z,1007.81
2019-03-24T08:04:24.233Z,1007.82
2019-03-24T08:05:24.226Z,1007.75
2019-03-24T08:06:24.224Z,1007.78
2019-03-24T08:07:24.225Z,1007.80
2019-03-24T08:08:24.220Z,1007.79
2019-03-24T08:09:24.174Z,1007.72
2019-03-24T08:10:24.180Z,1007.72
2019-03-24T08:11:24.179Z,1007.79
2019-03-24T08:12:24.140Z,1007.74
2019-03-24T08:13:24.145Z,1007.71
2019-03-24T08:14:24.173Z,1007.70
2019-03-24T08:15:24.126Z,1007.68
2019-03-24T08:16:24.095Z,1007.69
2019-03-24T08:17:24.088Z,1007.70
2019-03-24T08:18:30.000Z,1007.68
2019-03-24T08:19:25.096Z,1007.67
2019-03-24T08:20:24.058Z,1007.64
2019-03-24T08:21:24.072Z,1007.65
2019-03-24T08:22:24.029Z,1007.65
2019-03-24T08:23:24.021Z,1007.62
2019-03-24T08:24:24.007Z,1007.62
2019-03-24T08:25:24.024Z,1007.65
2019-03-24T08:26:23.983Z,1007.62
2019-03-24T08:27:23.982Z,1007.59
2019-03-24T08:28:24.011Z,1007.60
2019-03-24T08:29:23.957Z,1007.61
2019-03-24T08:30:23.968Z,1007.60
2019-03-24T08:31:23.975Z,1007.59
2019-03-24T08:32:23.916Z,1007.59
2019-03-24T08:33:23.920Z,1007.57
2019-03-24T08:34:23.903Z,1007.59
2019-03-24T08:35:23.886Z,1007.55
2019-03-24T08:36:23.946Z,1007.56
2019-03-24T08:37:23.919Z,1007.53
2019-03-24T08:38:23.851Z,1007.55
2019-03-24T08:39:23.845Z,1007.58
2019-03-24T08:40:23.882Z,1007.50
2019-03-24T08:41:23.823Z,1007.50
2019-03-24T08:42:23.834Z,1007.49
2019-03-24T08:43:23.848Z,1007.46
2019-03-24T08:44:23.784Z,1007.50
2019-03-24T08:45:23.792Z,1007.41
2019-03-24T08:46:23.766Z,1007.46
2019-03-24T08:47:23.762Z,1007.49
2019-03-24T08:48:23.767Z,1007.44
2019-03-24T08:49:23.764Z,1007.38
2019-03-24T08:50:23.723Z,1007.45
2019-03-24T08:51:23.729Z,1007.44
2019-03-24T08:52:23.699Z,1007.40
2019-03-24T08:53:23.689Z,1007.42
2019-03-24T08:54:23.702Z,1007.36
2019-03-24T08:55:23.715Z,1007.36
2019-03-24T08:56:23.654Z,1007.36
2019-03-24T08:57:23.644Z,1007.31
2019-03-24T08:58:23.642Z,1007.33
2019-03-24T08:59:23.625Z,1007.34
2019-03-24T09:00:30.660Z,1007.30
2019-03-24T09:01:24.833Z,1007.31
2019-03-24T09:02:23.705Z,1007.28
2019-03-24T09:03:23.577Z,1007.29
2019-03-24T09:04:23.564Z,1007.29
2019-03-24T09:05:23.572Z,1007.27
2019-03-24T09:06:23.541Z,1007.23
2019-03-24T09:07:23.569Z,1007.22
2019-03-24T09:08:23.530Z,1007.14
2019-03-24T09:09:23.594Z,1007.11
2019-03-24T09:10:23.498Z,1007.10
2019-03-24T09:11:31.239Z,1007.04
2019-03-24T09:12:24.501Z,1007.04
2019-03-24T09:13:23.470Z,1007.01
2019-03-24T09:14:23.450Z,1007.01
2019-03-24T09:15:23.440Z,1006.97
2019-03-24T09:16:23.428Z,1007.01
2019-03-24T09:17:23.430Z,1006.98
2019-03-24T09:18:23.439Z,1007.00
2019-03-24T09:19:23.411Z,1006.96
2019-03-24T09:20:23.385Z,1006.95
2019-03-24T09:21:23.381Z,1006.96
2019-03-24T09:22:23.379Z,1007.00
2019-03-24T09:23:23.418Z,1007.01
2019-03-24T09:24:23.392Z,1007.07
2019-03-24T09:25:23.580Z,1007.07
2019-03-24T09:26:23.326Z,1007.08
2019-03-24T09:27:23.304Z,1007.14
2019-03-24T09:28:23.305Z,1007.14
2019-03-24T09:29:23.369Z,1007.16
2019-03-24T09:30:23.303Z,1007.15
2019-03-24T09:31:23.267Z,1007.16
2019-03-24T09:32:23.288Z,1007.17
2019-03-24T09:33:23.248Z,1007.23
2019-03-24T09:34:23.234Z,1007.19
2019-03-24T09:35:23.226Z,1007.31
2019-03-24T09:36:23.263Z,1007.30
2019-03-24T09:37:23.211Z,1007.30
2019-03-24T09:38:23.190Z,1007.31
2019-03-24T09:39:23.191Z,1007.30
2019-03-24T09:40:23.161Z,1007.29
2019-03-24T09:41:23.153Z,1007.34
2019-03-24T09:42:23.219Z,1007.37
2019-03-24T09:43:23.127Z,1007.39
2019-03-24T09:44:23.119Z,1007.42
2019-03-24T09:45:23.111Z,1007.39
2019-03-24T09:46:23.092Z,1007.39
2019-03-24T09:47:23.094Z,1007.43
2019-03-24T09:48:23.120Z,1007.47
2019-03-24T09:49:23.059Z,1007.45
2019-03-24T09:50:23.048Z,1007.43
2019-03-24T09:51:23.040Z,1007.43
2019-03-24T09:52:23.024Z,1007.49
2019-03-24T09:53:23.021Z,1007.47
2019-03-24T09:54:23.048Z,1007.50
2019-03-24T09:55:22.989Z,1007.51
2019-03-24T09:56:22.986Z,1007.51
2019-03-24T09:57:22.972Z,1007.53
2019-03-24T09:58:22.959Z,1007.55
2019-03-24T09:59:22.951Z,1007.57
2019-03-24T10:00:23.131Z,1007.57
2019-03-24T10:01:22.971Z,1007.51
2019-03-24T10:02:22.917Z,1007.60
2019-03-24T10:03:22.900Z,1007.58
2019-03-24T10:04:22.951Z,1007.59
2019-03-24T10:05:22.878Z,1007.57
2019-03-24T10:06:22.909Z,1007.57
2019-03-24T10:07:22.857Z,1007.60
2019-03-24T10:08:22.845Z,1007.61
2019-03-24T10:09:22.880Z,1007.58
2019-03-24T10:10:22.826Z,1007.61
2019-03-24T10:11:22.812Z,1007.58
2019-03-24T10:12:22.838Z,1007.59
2019-03-24T10:13:22.796Z,1007.63
2019-03-24T10:14:22.783Z,1007.61
2019-03-24T10:15:22.792Z,1007.62
2019-03-24T10:16:22.758Z,1007.58
2019-03-24T10:17:22.751Z,1007.58
2019-03-24T10:18:22.783Z,1007.57
2019-03-24T10:19:22.733Z,1007.59
2019-03-24T10:20:22.712Z,1007.54
2019-03-24T10:21:22.767Z,1007.54
2019-03-24T10:22:22.693Z,1007.55
2019-03-24T10:23:22.679Z,1007.56
2019-03-24T10:24:22.731Z,1007.55
2019-03-24T10:25:22.663Z,1007.55
2019-03-24T10:26:22.646Z,1007.60
2019-03-24T10:27:22.657Z,1007.55
2019-03-24T10:28:22.639Z,1007.59
2019-03-24T10:29:22.616Z,1007.57
2019-03-24T10:30:22.659Z,1007.60
2019-03-24T10:31:22.688Z,1007.60
2019-03-24T10:32:22.606Z,1007.58
2019-03-24T10:33:22.576Z,1007.61
2019-03-24T10:34:22.557Z,1007.65
2019-03-24T10:35:22.551Z,1007.63
2019-03-24T10:36:22.615Z,1007.69
2019-03-24T10:37:22.526Z,1007.64
2019-03-24T10:38:22.518Z,1007.64
2019-03-24T10:39:22.499Z,1007.64
2019-03-24T10:40:28.603Z,1007.62
2019-03-24T10:41:23.517Z,1007.67
2019-03-24T10:42:22.473Z,1007.64
2019-03-24T10:43:22.455Z,1007.61
2019-03-24T10:44:22.445Z,1007.62
2019-03-24T10:45:22.497Z,1007.66
2019-03-24T10:46:22.422Z,1007.63
2019-03-24T10:47:22.449Z,1007.70
2019-03-24T10:48:33.145Z,1007.71
2019-03-24T10:49:25.051Z,1007.64
2019-03-24T10:50:22.377Z,1007.65
2019-03-24T10:51:22.387Z,1007.65
2019-03-24T10:52:22.364Z,1007.57
2019-03-24T10:53:22.379Z,1007.63
2019-03-24T10:54:22.335Z,1007.70
2019-03-24T10:55:22.327Z,1007.62
2019-03-24T10:56:22.325Z,1007.58
2019-03-24T10:57:22.298Z,1007.59
2019-03-24T10:58:22.290Z,1007.65
2019-03-24T10:59:22.325Z,1007.66
2019-03-24T11:00:22.266Z,1007.63
2019-03-24T11:01:22.259Z,1007.67
2019-03-24T11:02:22.284Z,1007.62
2019-03-24T11:03:22.253Z,1007.61
2019-03-24T11:04:22.226Z,1007.63
2019-03-24T11:05:22.254Z,1007.60
2019-03-24T11:06:22.201Z,1007.58
2019-03-24T11:07:22.238Z,1007.55
2019-03-24T11:08:22.183Z,1007.57
2019-03-24T11:09:22.170Z,1007.57
2019-03-24T11:10:22.196Z,1007.57
2019-03-24T11:11:22.450Z,1007.60
2019-03-24T11:12:22.168Z,1007.50
2019-03-24T11:13:22.152Z,1007.44
2019-03-24T11:14:22.140Z,1007.49
2019-03-24T11:15:22.099Z,1007.43
2019-03-24T11:16:22.107Z,1007.48
2019-03-24T11:17:22.124Z,1007.41
2019-03-24T11:18:22.092Z,1007.48
2019-03-24T11:19:22.064Z,1007.42
2019-03-24T11:20:22.054Z,1007.42
2019-03-24T11:21:22.080Z,1007.44
2019-03-24T11:22:22.061Z,1007.46
2019-03-24T11:23:22.069Z,1007.43
2019-03-24T11:24:22.029Z,1007.44
2019-03-24T11:25:22.000Z,1007.43
2019-03-24T11:26:21.984Z,1007.44
2019-03-24T11:27:21.976Z,1007.43
2019-03-24T11:28:21.962Z,1007.40
2019-03-24T11:29:21.979Z,1007.31
2019-03-24T11:30:21.945Z,1007.31
2019-03-24T11:31:21.923Z,1007.31
2019-03-24T11:32:21.913Z,1007.30
2019-03-24T11:33:21.946Z,1007.25
2019-03-24T11:34:21.888Z,1007.18
2019-03-24T11:35:21.915Z,1007.20
2019-03-24T11:36:21.866Z,1007.19
2019-03-24T11:37:21.876Z,1007.10
2019-03-24T11:38:21.853Z,1007.07
2019-03-24T11:39:21.874Z,1007.08
2019-03-24T11:40:21.820Z,1007.11
2019-03-24T11:41:21.843Z,1007.03
2019-03-24T11:42:21.799Z,1007.07
2019-03-24T11:43:21.799Z,1007.09
2019-03-24T11:44:21.782Z,1006.99
2019-03-24T11:45:21.843Z,1006.98
2019-03-24T11:46:21.779Z,1006.99
2019-03-24T11:47:26.629Z,1007.00
2019-03-24T11:48:22.744Z,1006.97
2019-03-24T11:49:21.740Z,1006.85
2019-03-24T11:50:21.721Z,1006.80
2019-03-24T11:51:21.742Z,1006.83
2019-03-24T11:52:21.685Z,1006.85
2019-03-24T11:53:21.733Z,1006.82
2019-03-24T11:54:21.664Z,1006.76
2019-03-24T11:55:21.654Z,1006.80
2019-03-24T11:56:21.640Z,1006.81
2019-03-24T11:57:21.630Z,1006.81
2019-03-24T11:58:21.620Z,1006.59
2019-03-24T11:59:21.659Z,1006.59
2019-03-24T12:00:21.601Z,1006.68
2019-03-24T12:01:21.589Z,1006.72
2019-03-24T12:02:21.576Z,1006.75
2019-03-24T12:03:21.563Z,1006.64
2019-03-24T12:04:21.552Z,1006.61
2019-03-24T12:05:21.599Z,1006.56